createdAt,value
2018-07-08T00:00:21.776Z,99.90
2018-07-08T00:02:49.315Z,99.90
2018-07-08T00:05:16.882Z,99.90
2018-07-08T00:07:45.386Z,99.90
2018-07-08T00:10:12.930Z,99.90
2018-07-08T00:12:40.493Z,99.90
2018-07-08T00:15:08.069Z,99.90
2018-07-08T00:17:35.610Z,99.90
2018-07-08T00:20:05.115Z,99.90
2018-07-08T00:22:32.677Z,99.90
2018-07-08T00:25:00.213Z,99.90
2018-07-08T00:27:27.778Z,99.90
2018-07-08T00:29:55.341Z,99.90
2018-07-08T00:32:22.887Z,99.90
2018-07-08T00:34:50.451Z,99.90
2018-07-08T00:37:18.013Z,99.90
2018-07-08T00:39:45.576Z,99.90
2018-07-08T00:42:13.150Z,99.90
2018-07-08T00:44:41.490Z,99.90
2018-07-08T00:47:09.030Z,99.90
2018-07-08T00:49:36.700Z,99.90
2018-07-08T00:52:05.180Z,99.90
2018-07-08T00:54:32.830Z,99.90
2018-07-08T00:57:00.402Z,99.90
2018-07-08T00:59:28.050Z,99.90
2018-07-08T01:01:55.586Z,99.90
2018-07-08T01:04:23.122Z,99.90
2018-07-08T01:06:50.686Z,99.90
2018-07-08T01:09:18.226Z,99.90
2018-07-08T01:11:46.553Z,99.90
2018-07-08T01:14:16.078Z,99.90
2018-07-08T01:16:43.613Z,99.90
2018-07-08T01:19:11.157Z,99.90
2018-07-08T01:21:38.736Z,99.90
2018-07-08T01:24:06.281Z,99.90
2018-07-08T01:26:33.850Z,99.90
2018-07-08T01:29:01.415Z,99.90
2018-07-08T01:31:28.957Z,99.90
2018-07-08T01:33:56.517Z,99.90
2018-07-08T01:36:24.082Z,99.90
2018-07-08T01:38:51.618Z,99.90
2018-07-08T01:41:19.190Z,99.90
2018-07-08T01:43:46.728Z,99.90
2018-07-08T01:46:14.270Z,99.90
2018-07-08T01:48:41.838Z,99.90
2018-07-08T01:51:09.373Z,99.90
2018-07-08T01:53:36.938Z,99.90
2018-07-08T01:56:04.478Z,99.90
2018-07-08T01:58:32.815Z,99.90
2018-07-08T02:01:00.355Z,99.90
2018-07-08T02:03:27.894Z,99.90
2018-07-08T02:05:55.462Z,99.90
2018-07-08T02:08:22.997Z,99.90
2018-07-08T02:10:50.561Z,99.90
2018-07-08T02:13:18.102Z,99.90
2018-07-08T02:15:46.638Z,99.90
2018-07-08T02:18:14.204Z,99.90
2018-07-08T02:20:41.750Z,99.90
2018-07-08T02:23:09.314Z,99.90
2018-07-08T02:25:36.865Z,99.90
2018-07-08T02:28:04.437Z,99.90
2018-07-08T02:30:31.973Z,99.90
2018-07-08T02:32:59.508Z,99.90
2018-07-08T02:35:27.082Z,99.90
2018-07-08T02:37:54.617Z,99.90
2018-07-08T02:40:22.190Z,99.90
2018-07-08T02:42:49.730Z,99.90
2018-07-08T02:45:17.299Z,99.90
2018-07-08T02:47:44.845Z,99.90
2018-07-08T02:50:12.409Z,99.90
2018-07-08T02:52:39.965Z,99.90
2018-07-08T02:55:07.529Z,99.90
2018-07-08T02:57:36.026Z,99.90
2018-07-08T03:00:03.579Z,99.90
2018-07-08T03:02:31.158Z,99.90
2018-07-08T03:04:58.701Z,99.90
2018-07-08T03:07:28.221Z,99.90
2018-07-08T03:09:55.757Z,99.90
2018-07-08T03:12:23.317Z,99.90
2018-07-08T03:14:50.857Z,99.90
2018-07-08T03:17:18.442Z,99.90
2018-07-08T03:19:45.981Z,99.90
2018-07-08T03:22:13.521Z,99.90
2018-07-08T03:24:41.093Z,99.90
2018-07-08T03:27:08.635Z,99.90
2018-07-08T03:29:36.202Z,99.90
2018-07-08T03:32:03.737Z,99.90
2018-07-08T03:34:33.253Z,99.90
2018-07-08T03:37:00.818Z,99.90
2018-07-08T03:39:28.355Z,99.90
2018-07-08T03:41:56.989Z,99.90
2018-07-08T03:44:24.573Z,99.90
2018-07-08T03:46:53.101Z,99.90
2018-07-08T03:49:20.638Z,99.90
2018-07-08T03:51:48.201Z,99.90
2018-07-08T03:54:15.741Z,99.90
2018-07-08T03:56:43.295Z,99.90
2018-07-08T03:59:11.625Z,99.90
2018-07-08T04:01:39.161Z,99.90
2018-07-08T04:04:06.729Z,99.90
2018-07-08T04:06:35.217Z,99.90
2018-07-08T04:09:02.785Z,99.90
2018-07-08T04:11:30.319Z,99.90
2018-07-08T04:13:57.881Z,99.90
2018-07-08T04:16:25.441Z,99.90
2018-07-08T04:18:53.000Z,99.90
2018-07-08T04:21:20.533Z,99.90
2018-07-08T04:23:48.098Z,99.90
2018-07-08T04:26:15.665Z,99.90
2018-07-08T04:28:43.193Z,99.90
2018-07-08T04:31:10.759Z,99.90
2018-07-08T04:33:38.393Z,99.90
2018-07-08T04:36:05.953Z,99.90
2018-07-08T04:38:33.489Z,99.90
2018-07-08T04:41:01.025Z,99.90
2018-07-08T04:43:28.585Z,99.90
2018-07-08T04:45:56.145Z,99.90
2018-07-08T04:48:23.713Z,99.90
2018-07-08T04:50:51.255Z,99.90
2018-07-08T04:53:18.813Z,99.90
2018-07-08T04:55:46.352Z,99.90
2018-07-08T04:58:13.918Z,99.90
2018-07-08T05:00:42.421Z,99.90
2018-07-08T05:03:09.948Z,99.90
2018-07-08T05:05:37.510Z,99.90
2018-07-08T05:08:05.047Z,99.90
2018-07-08T05:10:32.606Z,99.90
2018-07-08T05:13:00.140Z,99.90
2018-07-08T05:15:27.708Z,99.90
2018-07-08T05:17:55.241Z,99.90
2018-07-08T05:20:22.815Z,99.90
2018-07-08T05:22:50.360Z,99.90
2018-07-08T05:25:17.897Z,99.90
2018-07-08T05:27:45.457Z,99.90
2018-07-08T05:30:12.984Z,99.90
2018-07-08T05:32:40.545Z,99.90
2018-07-08T05:35:08.081Z,99.90
2018-07-08T05:37:35.640Z,99.90
2018-07-08T05:40:03.201Z,99.90
2018-07-08T05:42:30.738Z,99.90
2018-07-08T05:44:58.293Z,99.90
2018-07-08T05:47:25.832Z,99.90
2018-07-08T05:49:53.389Z,99.90
2018-07-08T05:52:20.946Z,99.90
2018-07-08T05:54:48.510Z,99.90
2018-07-08T05:57:16.045Z,99.90
2018-07-08T05:59:44.533Z,99.90
2018-07-08T06:02:12.093Z,99.90
2018-07-08T06:04:40.431Z,99.90
2018-07-08T06:07:07.986Z,99.90
2018-07-08T06:09:35.554Z,99.90
2018-07-08T06:12:03.085Z,99.90
2018-07-08T06:14:30.625Z,99.90
2018-07-08T06:16:58.280Z,99.90
2018-07-08T06:19:25.757Z,99.90
2018-07-08T06:21:53.316Z,99.90
2018-07-08T06:24:20.878Z,99.90
2018-07-08T06:26:49.377Z,99.90
2018-07-08T06:29:16.937Z,99.90
2018-07-08T06:31:44.538Z,99.90
2018-07-08T06:34:12.085Z,99.90
2018-07-08T06:36:39.622Z,99.90
2018-07-08T06:39:07.158Z,99.90
2018-07-08T06:41:34.725Z,99.90
2018-07-08T06:44:02.257Z,99.90
2018-07-08T06:46:29.821Z,99.90
2018-07-08T06:48:57.358Z,99.90
2018-07-08T06:51:24.916Z,99.90
2018-07-08T06:53:52.454Z,99.90
2018-07-08T06:56:20.019Z,99.90
2018-07-08T06:58:47.559Z,99.90
2018-07-08T07:01:15.122Z,99.90
2018-07-08T07:03:42.672Z,99.90
2018-07-08T07:06:10.209Z,99.90
2018-07-08T07:08:38.534Z,99.90
2018-07-08T07:11:06.074Z,99.90
2018-07-08T07:13:35.574Z,99.90
2018-07-08T07:16:03.120Z,99.90
2018-07-08T07:18:30.649Z,99.90
2018-07-08T07:20:58.210Z,99.90
2018-07-08T07:23:25.750Z,99.90
2018-07-08T07:25:53.319Z,99.90
2018-07-08T07:28:20.863Z,99.90
2018-07-08T07:30:49.462Z,99.90
2018-07-08T07:33:16.995Z,99.90
2018-07-08T07:35:44.571Z,99.90
2018-07-08T07:38:12.875Z,99.90
2018-07-08T07:40:40.441Z,99.90
2018-07-08T07:43:08.106Z,99.90
2018-07-08T07:45:35.633Z,99.90
2018-07-08T07:48:03.957Z,99.90
2018-07-08T07:50:32.509Z,99.90
2018-07-08T07:53:00.069Z,99.90
2018-07-08T07:55:27.603Z,99.90
2018-07-08T07:57:55.925Z,99.90
2018-07-08T08:00:23.481Z,99.90
2018-07-08T08:02:51.038Z,99.90
2018-07-08T08:05:18.597Z,99.90
2018-07-08T08:07:46.160Z,99.90
2018-07-08T08:10:13.693Z,99.90
2018-07-08T08:12:41.257Z,99.90
2018-07-08T08:15:09.797Z,99.90
2018-07-08T08:17:39.029Z,99.90
2018-07-08T08:20:06.920Z,99.90
2018-07-08T08:22:36.429Z,99.90
2018-07-08T08:25:03.970Z,99.90
2018-07-08T08:27:31.530Z,99.90
2018-07-08T08:29:59.069Z,99.90
2018-07-08T08:32:26.700Z,99.90
2018-07-08T08:34:54.254Z,99.90
2018-07-08T08:37:21.819Z,99.90
2018-07-08T08:39:49.386Z,99.90
2018-07-08T08:42:16.925Z,99.90
2018-07-08T08:44:44.497Z,99.90
2018-07-08T08:47:12.041Z,99.90
2018-07-08T08:49:39.613Z,99.90
2018-07-08T08:52:07.154Z,99.90
2018-07-08T08:54:34.710Z,99.90
2018-07-08T08:57:02.253Z,99.90
2018-07-08T08:59:30.570Z,99.90
2018-07-08T09:01:58.130Z,99.90
2018-07-08T09:04:25.657Z,99.90
2018-07-08T09:06:54.168Z,99.90
2018-07-08T09:09:21.723Z,99.90
2018-07-08T09:11:49.253Z,99.90
2018-07-08T09:14:16.807Z,99.90
2018-07-08T09:16:44.341Z,99.60
2018-07-08T09:19:13.842Z,99.90
2018-07-08T09:21:41.378Z,99.40
2018-07-08T09:24:08.939Z,99.70
2018-07-08T09:26:36.513Z,99.10
2018-07-08T09:29:04.048Z,99.00
2018-07-08T09:31:31.605Z,99.40
2018-07-08T09:33:59.162Z,99.40
2018-07-08T09:36:26.697Z,99.10
2018-07-08T09:38:54.319Z,99.00
2018-07-08T09:41:21.801Z,98.80
2018-07-08T09:43:50.293Z,98.30
2018-07-08T09:46:17.850Z,98.80
2018-07-08T09:48:45.408Z,98.60
2018-07-08T09:51:12.941Z,98.50
2018-07-08T09:53:40.503Z,98.90
2018-07-08T09:56:08.037Z,98.70
2018-07-08T09:58:35.565Z,98.50
2018-07-08T10:01:03.129Z,97.60
2018-07-08T10:03:30.657Z,98.10
2018-07-08T10:05:58.214Z,98.00
2018-07-08T10:08:26.693Z,97.80
2018-07-08T10:10:56.218Z,97.30
2018-07-08T10:13:23.762Z,97.70
2018-07-08T10:15:52.228Z,97.40
2018-07-08T10:18:19.776Z,97.20
2018-07-08T10:20:47.353Z,97.50
2018-07-08T10:23:14.914Z,97.50
2018-07-08T10:25:42.443Z,96.50
2018-07-08T10:28:09.998Z,96.80
2018-07-08T10:30:37.525Z,96.70
2018-07-08T10:33:05.842Z,97.20
2018-07-08T10:35:33.373Z,97.20
2018-07-08T10:38:00.914Z,97.40
2018-07-08T10:40:28.477Z,96.40
2018-07-08T10:42:56.010Z,96.00
2018-07-08T10:45:24.349Z,95.30
2018-07-08T10:47:51.905Z,95.30
2018-07-08T10:50:19.519Z,95.50
2018-07-08T10:52:47.079Z,94.80
2018-07-08T10:55:15.631Z,95.00
2018-07-08T10:57:43.202Z,94.50
2018-07-08T11:00:11.497Z,95.00
2018-07-08T11:02:39.048Z,95.00
2018-07-08T11:05:08.258Z,94.70
2018-07-08T11:07:35.811Z,94.70
2018-07-08T11:10:03.341Z,94.30
2018-07-08T11:12:32.848Z,93.70
2018-07-08T11:15:01.144Z,93.80
2018-07-08T11:17:28.704Z,93.80
2018-07-08T11:19:56.259Z,94.00
2018-07-08T11:22:23.786Z,93.40
2018-07-08T11:24:51.338Z,93.20
2018-07-08T11:27:19.636Z,93.00
2018-07-08T11:29:47.186Z,93.00
2018-07-08T11:32:15.477Z,92.60
2018-07-08T11:34:43.010Z,92.60
2018-07-08T11:37:11.334Z,92.90
2018-07-08T11:39:38.885Z,92.90
2018-07-08T11:42:07.209Z,92.80
2018-07-08T11:44:34.764Z,92.70
2018-07-08T11:47:02.293Z,92.10
2018-07-08T11:49:29.847Z,92.40
2018-07-08T11:51:57.389Z,93.00
2018-07-08T11:54:24.967Z,92.60
2018-07-08T11:56:52.499Z,92.10
2018-07-08T11:59:20.058Z,90.70
2018-07-08T12:01:48.546Z,90.10
2018-07-08T12:04:16.050Z,90.60
2018-07-08T12:06:43.605Z,91.70
2018-07-08T12:09:11.897Z,91.20
2018-07-08T12:11:39.449Z,91.20
2018-07-08T12:14:07.742Z,88.50
2018-07-08T12:16:36.297Z,88.50
2018-07-08T12:19:03.821Z,90.10
2018-07-08T12:21:31.353Z,88.70
2018-07-08T12:23:58.908Z,89.70
2018-07-08T12:26:27.382Z,90.60
2018-07-08T12:28:55.238Z,90.20
2018-07-08T12:31:22.777Z,90.00
2018-07-08T12:33:50.329Z,88.10
2018-07-08T12:36:17.887Z,86.50
2018-07-08T12:38:45.417Z,87.40
2018-07-08T12:41:12.984Z,84.00
2018-07-08T12:43:40.516Z,83.70
2018-07-08T12:46:09.050Z,86.00
2018-07-08T12:48:36.585Z,85.10
2018-07-08T12:51:04.130Z,83.60
2018-07-08T12:53:31.684Z,83.80
2018-07-08T12:55:59.222Z,83.10
2018-07-08T12:58:26.783Z,81.80
2018-07-08T13:00:54.308Z,82.90
2018-07-08T13:03:21.861Z,80.80
2018-07-08T13:05:49.398Z,81.10
2018-07-08T13:08:16.932Z,81.10
2018-07-08T13:10:44.493Z,79.60
2018-07-08T13:13:12.786Z,78.00
2018-07-08T13:15:40.365Z,77.90
2018-07-08T13:18:07.897Z,76.90
2018-07-08T13:20:35.436Z,76.80
2018-07-08T13:23:02.988Z,74.00
2018-07-08T13:25:30.550Z,73.20
2018-07-08T13:27:58.105Z,75.20
2018-07-08T13:30:25.633Z,74.40
2018-07-08T13:32:53.202Z,72.90
2018-07-08T13:35:20.743Z,73.30
2018-07-08T13:37:48.296Z,70.30
2018-07-08T13:40:15.849Z,73.50
2018-07-08T13:42:43.401Z,69.80
2018-07-08T13:45:10.927Z,71.00
2018-07-08T13:47:38.458Z,71.40
2018-07-08T13:50:07.700Z,69.80
2018-07-08T13:52:35.253Z,69.80
2018-07-08T13:55:02.810Z,71.00
2018-07-08T13:57:30.342Z,69.20
2018-07-08T13:59:57.900Z,67.00
2018-07-08T14:02:25.434Z,67.40
2018-07-08T14:04:52.998Z,65.00
2018-07-08T14:07:20.557Z,62.70
2018-07-08T14:09:48.896Z,59.50
2018-07-08T14:12:18.438Z,59.50
2018-07-08T14:14:46.040Z,59.70
2018-07-08T14:17:13.566Z,59.60
2018-07-08T14:19:41.140Z,56.30
2018-07-08T14:22:09.641Z,56.80
2018-07-08T14:24:37.176Z,57.30
2018-07-08T14:27:04.741Z,54.90
2018-07-08T14:29:32.309Z,54.10
2018-07-08T14:31:59.854Z,54.50
2018-07-08T14:34:27.408Z,57.40
2018-07-08T14:36:54.940Z,56.30
2018-07-08T14:39:22.501Z,55.90
2018-07-08T14:41:50.037Z,54.70
2018-07-08T14:44:17.565Z,55.80
2018-07-08T14:46:45.123Z,53.50
2018-07-08T14:49:12.654Z,53.90
2018-07-08T14:51:40.215Z,53.10
2018-07-08T14:54:07.742Z,52.60
2018-07-08T14:56:35.304Z,52.80
2018-07-08T14:59:02.870Z,53.60
2018-07-08T15:01:30.406Z,53.40
2018-07-08T15:03:57.939Z,51.80
2018-07-08T15:06:25.503Z,52.20
2018-07-08T15:08:53.058Z,50.40
2018-07-08T15:11:20.613Z,49.00
2018-07-08T15:13:48.168Z,50.60
2018-07-08T15:16:16.487Z,50.80
2018-07-08T15:18:44.121Z,50.70
2018-07-08T15:21:11.737Z,51.00
2018-07-08T15:23:39.346Z,51.60
2018-07-08T15:26:06.906Z,50.10
2018-07-08T15:28:34.606Z,49.50
2018-07-08T15:31:02.118Z,51.20
2018-07-08T15:33:29.798Z,49.40
2018-07-08T15:35:57.376Z,51.40
2018-07-08T15:38:24.929Z,51.10
2018-07-08T15:40:52.457Z,50.30
2018-07-08T15:43:19.985Z,50.80
2018-07-08T15:45:48.314Z,49.30
2018-07-08T15:48:15.852Z,49.20
2018-07-08T15:50:44.361Z,48.00
2018-07-08T15:53:11.933Z,47.30
2018-07-08T15:55:39.465Z,47.10
2018-07-08T15:58:07.002Z,46.30
2018-07-08T16:00:34.564Z,46.20
2018-07-08T16:03:02.098Z,48.50
2018-07-08T16:05:29.658Z,46.90
2018-07-08T16:07:57.189Z,46.00
2018-07-08T16:10:25.668Z,46.60
2018-07-08T16:12:54.979Z,45.70
2018-07-08T16:15:23.301Z,45.40
2018-07-08T16:17:50.865Z,45.30
2018-07-08T16:20:18.402Z,44.40
2018-07-08T16:22:46.885Z,45.60
2018-07-08T16:25:14.748Z,45.30
2018-07-08T16:27:42.279Z,45.90
2018-07-08T16:30:09.844Z,43.00
2018-07-08T16:32:37.421Z,43.10
2018-07-08T16:35:04.961Z,44.10
2018-07-08T16:37:32.483Z,44.80
2018-07-08T16:40:00.038Z,45.10
2018-07-08T16:42:28.337Z,45.00
2018-07-08T16:44:55.892Z,45.00
2018-07-08T16:47:23.432Z,45.60
2018-07-08T16:49:50.997Z,44.80
2018-07-08T16:52:18.581Z,44.50
2018-07-08T16:54:46.147Z,44.20
2018-07-08T16:57:13.692Z,45.80
2018-07-08T16:59:41.245Z,45.80
2018-07-08T17:02:08.839Z,46.50
2018-07-08T17:04:36.397Z,44.90
2018-07-08T17:07:03.990Z,47.60
2018-07-08T17:09:31.642Z,49.10
2018-07-08T17:11:59.982Z,51.40
2018-07-08T17:14:28.510Z,51.40
2018-07-08T17:16:56.098Z,52.10
2018-07-08T17:19:23.672Z,54.20
2018-07-08T17:21:51.255Z,54.20
2018-07-08T17:24:18.822Z,54.80
2018-07-08T17:26:46.426Z,55.00
2018-07-08T17:29:14.016Z,56.00
2018-07-08T17:31:41.603Z,56.70
2018-07-08T17:34:09.217Z,57.70
2018-07-08T17:36:36.819Z,58.60
2018-07-08T17:39:05.402Z,59.60
2018-07-08T17:41:33.743Z,61.30
2018-07-08T17:44:01.302Z,61.30
2018-07-08T17:46:28.932Z,62.10
2018-07-08T17:48:56.506Z,62.60
2018-07-08T17:51:24.155Z,63.30
2018-07-08T17:53:51.717Z,62.80
2018-07-08T17:56:19.384Z,62.80
2018-07-08T17:58:46.982Z,62.80
2018-07-08T18:01:14.541Z,63.50
2018-07-08T18:03:43.130Z,64.80
2018-07-08T18:06:11.470Z,66.60
2018-07-08T18:08:39.043Z,65.90
2018-07-08T18:11:06.654Z,65.30
2018-07-08T18:13:34.253Z,67.10
2018-07-08T18:16:01.844Z,67.10
2018-07-08T18:18:29.408Z,66.80
2018-07-08T18:20:57.009Z,68.00
2018-07-08T18:23:24.587Z,68.80
2018-07-08T18:25:53.126Z,68.60
2018-07-08T18:28:20.682Z,68.50
2018-07-08T18:30:49.234Z,68.60
2018-07-08T18:33:16.840Z,68.80
2018-07-08T18:35:44.425Z,69.40
2018-07-08T18:38:12.952Z,70.80
2018-07-08T18:40:41.475Z,71.70
2018-07-08T18:43:09.043Z,72.60
2018-07-08T18:45:36.585Z,76.10
2018-07-08T18:48:04.405Z,77.20
2018-07-08T18:50:31.962Z,79.40
2018-07-08T18:52:59.535Z,79.40
2018-07-08T18:55:27.106Z,80.30
2018-07-08T18:57:54.679Z,81.80
2018-07-08T19:00:22.296Z,83.00
2018-07-08T19:02:49.862Z,83.70
2018-07-08T19:05:18.441Z,85.30
2018-07-08T19:07:46.060Z,85.70
2018-07-08T19:10:13.614Z,85.90
2018-07-08T19:12:41.966Z,88.90
2018-07-08T19:15:09.592Z,88.90
2018-07-08T19:17:37.162Z,90.40
2018-07-08T19:20:04.754Z,91.10
2018-07-08T19:22:33.089Z,92.00
2018-07-08T19:25:00.672Z,92.00
2018-07-08T19:27:28.289Z,92.40
2018-07-08T19:29:55.860Z,92.90
2018-07-08T19:32:23.492Z,93.70
2018-07-08T19:34:51.080Z,93.80
2018-07-08T19:37:19.641Z,94.60
2018-07-08T19:39:47.257Z,95.30
2018-07-08T19:42:14.821Z,95.90
2018-07-08T19:44:43.168Z,96.80
2018-07-08T19:47:10.760Z,96.70
2018-07-08T19:49:39.175Z,97.70
2018-07-08T19:52:06.765Z,97.70
2018-07-08T19:54:35.355Z,97.90
2018-07-08T19:57:03.725Z,98.30
2018-07-08T19:59:31.343Z,98.40
2018-07-08T20:01:58.926Z,98.90
2018-07-08T20:04:26.484Z,99.20
2018-07-08T20:06:54.101Z,99.70
2018-07-08T20:09:21.677Z,99.90
2018-07-08T20:11:49.276Z,99.90
2018-07-08T20:14:16.931Z,99.90
2018-07-08T20:16:44.523Z,99.90
2018-07-08T20:19:13.050Z,99.90
2018-07-08T20:21:41.071Z,99.90
2018-07-08T20:24:08.639Z,99.90
2018-07-08T20:26:37.175Z,99.90
2018-07-08T20:29:04.702Z,99.90
2018-07-08T20:31:32.248Z,99.90
2018-07-08T20:34:00.777Z,99.90
2018-07-08T20:36:28.358Z,99.90
2018-07-08T20:38:56.676Z,99.90
2018-07-08T20:41:24.209Z,99.90
2018-07-08T20:43:51.742Z,99.90
2018-07-08T20:46:19.300Z,99.90
2018-07-08T20:48:46.874Z,99.90
2018-07-08T20:51:14.441Z,99.90
2018-07-08T20:53:41.965Z,99.90
2018-07-08T20:56:09.528Z,99.90
2018-07-08T20:58:37.845Z,99.90
2018-07-08T21:01:05.381Z,99.90
2018-07-08T21:03:32.913Z,99.90
2018-07-08T21:06:00.473Z,99.90
2018-07-08T21:08:28.005Z,99.90
2018-07-08T21:10:55.564Z,99.90
2018-07-08T21:13:23.116Z,99.90
2018-07-08T21:15:50.649Z,99.90
2018-07-08T21:18:18.207Z,99.90
2018-07-08T21:20:45.816Z,99.90
2018-07-08T21:23:13.378Z,99.90
2018-07-08T21:25:41.670Z,99.90
2018-07-08T21:28:09.225Z,99.90
2018-07-08T21:30:36.805Z,99.90
2018-07-08T21:33:04.368Z,99.90
2018-07-08T21:35:31.921Z,99.90
2018-07-08T21:37:59.490Z,99.90
2018-07-08T21:40:27.018Z,99.90
2018-07-08T21:42:56.513Z,99.90
2018-07-08T21:45:24.077Z,99.90
2018-07-08T21:47:51.631Z,99.90
2018-07-08T21:50:19.161Z,99.90
2018-07-08T21:52:46.715Z,99.90
2018-07-08T21:55:14.285Z,99.90
2018-07-08T21:57:42.581Z,99.90
2018-07-08T22:00:11.770Z,99.90
2018-07-08T22:02:39.329Z,99.90
2018-07-08T22:05:07.445Z,99.90
2018-07-08T22:07:34.974Z,99.90
2018-07-08T22:10:02.632Z,99.90
2018-07-08T22:12:30.189Z,99.90
2018-07-08T22:14:58.565Z,99.90
2018-07-08T22:17:26.141Z,99.90
2018-07-08T22:19:53.698Z,99.90
2018-07-08T22:22:22.201Z,99.90
2018-07-08T22:24:50.499Z,99.90
2018-07-08T22:27:18.832Z,99.90
2018-07-08T22:29:46.356Z,99.90
2018-07-08T22:32:13.909Z,99.90
2018-07-08T22:34:41.461Z,99.90
2018-07-08T22:37:09.021Z,99.90
2018-07-08T22:39:36.641Z,99.90
2018-07-08T22:42:04.106Z,99.90
2018-07-08T22:44:31.657Z,99.90
2018-07-08T22:46:59.189Z,99.90
2018-07-08T22:49:26.744Z,99.90
2018-07-08T22:51:54.629Z,99.90
2018-07-08T22:54:22.160Z,99.90
2018-07-08T22:56:50.711Z,99.90
2018-07-08T22:59:19.202Z,99.90
2018-07-08T23:01:58.702Z,99.90
2018-07-08T23:04:26.233Z,99.90
2018-07-08T23:06:54.569Z,99.90
2018-07-08T23:09:22.105Z,99.90
2018-07-08T23:11:49.664Z,99.90
2018-07-08T23:14:17.195Z,99.90
2018-07-08T23:16:44.753Z,99.90
2018-07-08T23:19:14.241Z,99.90
2018-07-08T23:21:41.764Z,99.90
2018-07-08T23:24:09.313Z,99.90
2018-07-08T23:26:36.851Z,99.90
2018-07-08T23:29:04.405Z,99.90
2018-07-08T23:31:31.962Z,99.90
2018-07-08T23:33:59.524Z,99.90
2018-07-08T23:36:27.169Z,99.90
2018-07-08T23:38:54.721Z,99.90
2018-07-08T23:41:23.041Z,99.90
2018-07-08T23:43:50.564Z,99.90
2018-07-08T23:46:19.192Z,99.90
2018-07-08T23:48:46.717Z,99.90
2018-07-08T23:51:15.204Z,99.90
2018-07-08T23:53:42.744Z,99.90
2018-07-08T23:56:10.298Z,99.90
2018-07-08T23:58:37.849Z,99.90
